Date,TemperatureHighF,TemperatureAvgF,TemperatureLowF,DewpointHighF,DewpointAvgF,DewpointLowF,HumidityHigh,HumidityAvg,HumidityLow,PressureMaxIn,PressureMinIn,WindSpeedMaxMPH,WindSpeedAvgMPH,GustSpeedMaxMPH,PrecipitationSumIn
2012-1-1,42.4,35.0,29.7,41.0,32.0,27.6,96,89,74,29.99,29.72,27,4,27,0.00
2012-1-2,49.4,40.8,27.9,47.1,37.6,25.0,98,89,60,29.72,29.35,23,2,23,0.16
2012-1-3,31.5,22.1,6.7,25.4,11.9,-1.0,83,65,48,29.93,29.56,22,5,22,0.00
2012-1-4,19.1,11.4,4.2,10.9,1.8,-2.4,80,65,47,29.96,29.85,22,4,22,0.00
2012-1-5,34.4,24.6,19.0,21.5,15.7,9.6,87,69,54,29.85,29.63,20,1,20,0.00
2012-1-6,27.8,21.4,13.4,26.5,15.3,6.4,95,78,57,29.98,29.71,11,1,11,0.00
2012-1-7,37.8,31.8,25.8,36.5,30.7,24.5,98,96,94,29.77,29.64,7,0,7,0.10
2012-1-8,41.1,31.4,23.3,32.3,26.1,19.3,98,81,61,30.18,29.75,17,3,17,0.00
2012-1-9,32.2,22.2,12.7,19.6,12.9,7.1,90,69,37,30.25,29.95,18,1,18,0.00
2012-1-10,38.7,28.2,15.7,36.6,24.2,13.2,98,86,55,29.95,29.64,25,2,25,0.01
2012-1-11,25.5,17.5,10.5,13.6,1.7,-4.9,75,51,29,30.22,29.85,19,4,19,0.00
2012-1-12,33.2,25.1,15.0,32.7,20.2,0.7,98,82,50,30.25,29.48,21,3,21,0.00
2012-1-13,46.4,33.9,28.4,46.0,31.5,23.0,99,91,67,29.55,29.08,24,3,24,0.31
2012-1-14,31.1,22.4,5.4,25.6,13.8,-2.0,83,69,61,29.92,29.25,22,5,22,0.00
2012-1-15,12.2,4.6,-2.2,99.9,10.0,-6.4,78,65,46,30.35,29.91,27,5,27,0.00
2012-1-16,34.2,13.5,0.2,27.3,4.8,-4.6,93,69,42,30.49,30.04,20,2,22,0.00
2012-1-17,40.9,34.6,31.1,40.2,28.7,24.6,98,79,65,30.04,29.42,15,1,23,0.26
2012-1-18,44.2,31.9,13.1,43.3,23.1,1.5,98,71,48,30.05,29.31,32,6,32,0.00
2012-1-19,19.6,11.7,3.2,7.2,1.8,-0.3,86,65,42,30.35,30.04,21,2,21,0.00
2012-1-20,33.3,20.8,10.7,32.2,16.9,4.4,98,85,75,30.20,29.83,22,2,22,0.04
2012-1-21,13.0,8.2,1.6,9.1,3.4,-1.6,94,80,72,30.33,30.20,11,1,11,0.00
2012-1-22,23.4,7.8,-6.2,99.9,32.7,-3.1,100,80,57,30.58,30.33,6,0,6,0.01
2012-1-23,42.7,26.1,1.9,42.1,24.2,-0.6,98,92,85,30.54,30.00,18,1,18,0.05
2012-1-24,48.2,44.1,36.8,47.8,43.4,35.3,99,98,94,30.00,29.80,21,2,21,0.30
2012-1-25,39.9,33.7,26.3,35.2,26.2,18.9,98,75,55,30.09,29.89,26,4,26,0.00
2012-1-26,35.2,27.6,23.1,20.1,16.9,14.5,81,64,43,30.16,30.07,19,3,19,0.00
2012-1-27,42.0,33.6,26.1,41.4,31.6,15.9,98,93,62,30.10,29.14,21,3,21,1.41
2012-1-28,38.2,31.6,26.0,35.0,27.5,24.3,98,85,65,29.93,29.25,28,4,28,0.01
2012-1-29,40.2,32.5,21.2,35.0,22.9,14.5,98,71,36,29.94,29.71,25,2,25,0.00
2012-1-30,34.1,24.7,17.2,22.8,14.7,5.6,96,68,42,30.22,29.91,24,3,24,0.00
2012-1-31,25.8,19.1,9.0,22.5,12.5,5.2,93,76,51,30.28,30.06,8,1,8,0.00
2012-2-1,37.7,31.5,24.2,37.1,30.4,22.2,98,96,92,30.06,29.69,13,1,13,0.20
2012-2-2,26.6,23.4,19.5,22.3,20.0,15.9,92,87,81,30.17,29.89,18,4,18,0.00
2012-2-3,27.9,19.3,12.2,16.1,12.2,9.0,92,75,51,30.26,30.16,26,4,26,0.00
2012-2-4,30.2,23.1,15.2,18.5,15.8,9.9,91,74,56,30.17,30.03,21,3,23,0.00
2012-2-5,27.7,17.6,8.2,13.2,8.2,4.5,86,68,41,30.12,29.92,20,3,20,0.00
2012-2-6,45.1,33.4,23.2,29.3,23.9,13.2,92,69,48,29.92,29.68,19,2,19,0.00
2012-2-7,41.4,33.5,17.9,29.0,20.0,5.8,81,58,38,30.19,29.76,22,4,23,0.00
2012-2-8,31.9,21.1,6.5,22.0,11.3,3.1,91,68,34,30.26,30.01,10,1,15,0.00
2012-2-9,43.2,27.4,18.1,23.3,16.8,10.2,100,70,27,30.03,29.86,13,1,13,0.00
2012-2-10,44.7,29.7,12.1,37.0,24.5,9.9,97,82,57,30.08,29.83,22,1,22,0.00
2012-2-11,35.7,29.7,15.5,33.8,28.0,11.9,100,93,86,29.83,29.40,27,4,27,0.09
2012-2-12,18.9,10.1,2.9,11.9,1.4,-7.3,86,67,54,29.74,29.38,29,7,29,0.00
2012-2-13,26.0,14.5,2.3,12.1,4.5,-5.8,85,65,47,29.95,29.70,21,2,21,0.01
2012-2-14,41.2,24.2,5.8,32.4,18.3,2.6,92,79,57,30.11,29.95,15,1,15,0.06
2012-2-15,42.0,30.1,21.3,34.8,26.2,19.6,96,86,59,30.20,30.11,4,0,4,0.01
2012-2-16,45.2,32.1,24.1,35.3,28.7,22.6,97,88,64,30.23,30.05,9,0,9,0.00
2012-2-17,41.3,36.3,29.9,40.9,35.4,29.1,100,97,94,30.05,29.76,15,0,15,0.19
2012-2-18,42.4,35.0,27.7,31.2,25.7,21.3,97,71,46,29.82,29.69,23,3,23,0.00
2012-2-19,38.8,31.2,25.2,22.3,16.0,12.1,71,55,34,29.97,29.81,17,5,26,0.00
2012-2-20,31.7,25.3,18.8,15.0,10.8,8.4,67,54,39,30.19,29.95,27,5,27,0.00
2012-2-21,38.2,27.1,14.0,30.8,17.1,9.5,84,67,38,30.29,29.91,16,2,16,0.00
2012-2-22,45.9,37.3,28.4,41.8,35.0,27.3,98,92,79,29.91,29.50,13,0,14,0.14
2012-2-23,44.3,36.9,27.9,43.0,34.7,26.9,99,92,73,29.63,29.24,23,3,23,0.43
2012-2-24,41.2,35.3,28.3,32.8,29.2,26.0,96,79,56,29.79,29.22,17,2,17,0.10
2012-2-25,39.7,34.5,31.2,34.6,30.2,23.6,97,85,71,29.45,28.82,27,5,27,0.73
2012-2-26,32.6,26.7,18.5,23.6,13.4,7.7,73,57,41,30.38,29.44,36,8,36,0.00
2012-2-27,28.8,22.8,13.8,27.5,14.4,4.8,95,71,42,30.45,29.95,14,2,16,0.00
2012-2-28,29.9,24.5,11.5,26.8,19.7,9.2,96,82,64,30.36,29.93,25,4,25,0.04
2012-2-29,36.2,22.0,4.6,18.1,11.0,1.9,93,66,33,30.37,30.15,17,1,17,0.08
2012-3-1,26.0,21.3,15.7,20.5,16.3,13.1,92,81,63,30.17,29.99,26,4,26,0.00
2012-3-2,31.7,21.2,12.0,23.6,17.0,9.2,93,84,67,30.15,30.06,16,2,19,0.06
2012-3-3,43.4,35.0,22.1,42.8,33.8,20.1,100,96,89,30.06,29.23,27,2,27,0.76
2012-3-4,40.8,33.1,24.5,34.7,29.6,23.3,97,88,62,29.62,29.44,7,0,7,0.01
2012-3-5,31.0,25.9,18.2,26.3,19.7,9.9,96,78,59,30.21,29.49,17,4,17,0.03
2012-3-6,33.8,22.2,13.1,15.7,12.2,8.2,89,67,44,30.55,30.20,22,4,22,0.00
2012-3-7,44.6,31.2,13.0,39.0,27.2,10.9,98,86,64,30.55,30.10,22,2,22,0.00
2012-3-8,58.7,49.7,41.6,47.5,42.9,35.8,88,78,66,30.10,29.60,26,4,26,0.00
2012-3-9,50.9,37.4,25.9,48.1,26.0,11.7,100,67,32,30.14,29.55,30,5,30,0.44
2012-3-10,38.9,28.0,19.8,18.6,14.7,9.0,91,61,31,30.47,30.14,15,2,15,0.00
2012-3-11,45.9,32.4,18.4,30.8,25.0,16.5,94,76,51,30.47,30.16,21,1,21,0.00
2012-3-12,62.9,42.4,25.0,37.1,30.3,23.8,98,68,30,30.18,30.09,13,1,13,0.00
2012-3-13,50.2,40.4,35.1,42.4,36.6,30.4,97,87,67,30.13,29.93,18,2,18,0.13
2012-3-14,35.3,33.3,30.4,34.5,32.3,29.1,98,96,95,30.26,30.03,18,3,18,0.05
2012-3-15,33.9,31.3,28.5,30.5,28.9,26.6,96,91,84,30.36,30.25,19,3,19,0.12
2012-3-16,34.6,31.0,22.5,32.5,29.1,21.0,98,93,80,30.33,30.10,7,0,7,0.24
2012-3-17,57.1,42.8,31.8,37.6,33.7,25.4,98,74,30,30.30,30.12,19,3,19,0.07
2012-3-18,67.2,48.3,28.5,48.3,40.5,26.7,100,77,48,30.28,30.00,18,1,18,0.01
2012-3-19,62.6,48.3,34.1,46.3,38.9,31.3,96,72,46,30.33,30.00,20,1,20,0.00
2012-3-20,74.4,50.0,29.8,51.6,40.7,28.5,97,74,44,30.32,30.10,10,0,11,0.00
2012-3-21,84.3,60.2,35.6,56.8,47.4,34.4,98,68,33,30.22,30.11,18,1,18,0.00
2012-3-22,85.2,64.6,40.3,55.2,49.0,38.9,97,62,33,30.11,29.85,22,3,22,0.00
2012-3-23,64.0,53.9,39.1,46.3,27.3,14.0,86,42,16,30.04,29.85,34,5,34,0.00
2012-3-24,51.9,38.7,28.8,24.2,16.5,7.8,77,44,17,30.14,30.00,20,3,20,0.00
2012-3-25,42.0,36.4,28.6,38.5,32.0,23.4,97,85,56,30.03,29.70,11,1,12,0.24
2012-3-26,38.2,34.4,26.8,37.4,25.2,8.5,98,72,42,29.79,29.51,32,7,34,0.02
2012-3-27,40.1,29.9,21.3,11.8,4.1,-5.8,53,36,15,30.08,29.79,36,10,36,0.00
2012-3-28,39.6,31.9,24.1,32.0,19.6,6.7,100,63,36,30.08,29.65,15,1,15,0.00
2012-3-29,37.4,33.0,30.8,31.2,29.9,26.4,100,89,67,29.77,29.60,10,1,10,0.22
2012-3-30,41.1,34.2,27.4,30.6,24.1,17.1,93,68,44,29.99,29.75,27,5,27,0.02
2012-3-31,48.7,34.6,20.0,24.2,20.4,17.3,90,60,31,30.01,29.83,16,2,16,0.00
2012-4-1,48.9,36.6,21.2,31.2,23.7,15.4,92,64,30,29.85,29.66,15,1,16,0.00
2012-4-2,48.1,38.6,29.8,37.7,29.5,18.6,92,71,40,29.68,29.57,18,1,18,0.04
2012-4-3,52.6,39.9,28.8,26.0,21.3,15.2,69,48,34,29.71,29.59,25,5,26,0.00
2012-4-4,50.3,40.5,28.2,32.7,27.7,22.3,82,61,43,29.61,29.37,22,4,26,0.00
2012-4-5,46.0,39.5,32.6,28.7,25.6,21.8,81,59,41,29.77,29.47,28,5,28,0.00
2012-4-6,50.7,38.7,27.9,25.3,22.1,18.4,77,53,29,29.89,29.77,19,2,19,0.00
2012-4-7,46.9,37.8,27.7,24.3,21.5,19.3,78,53,38,29.92,29.88,22,4,22,0.00
2012-4-8,40.2,35.2,31.9,37.7,30.0,23.7,97,82,62,29.88,29.49,17,2,18,0.18
2012-4-9,50.1,41.5,34.4,44.8,39.2,33.1,98,92,72,29.50,29.34,13,1,14,0.15
2012-4-10,53.7,41.7,29.4,42.0,35.2,28.5,98,80,52,29.69,29.48,18,1,18,0.01
2012-4-11,58.9,42.5,28.5,42.4,35.6,27.2,98,79,42,29.84,29.69,12,1,12,0.00
2012-4-12,48.7,42.8,38.4,45.2,39.6,36.0,97,89,75,30.03,29.81,20,2,22,0.12
2012-4-13,60.9,44.9,31.3,41.8,33.2,24.2,99,70,26,30.07,29.90,22,2,22,0.02
2012-4-14,69.5,50.1,29.7,35.9,29.2,21.2,93,52,20,30.02,29.85,27,2,27,0.00
2012-4-15,68.3,51.5,39.3,46.6,39.7,33.8,95,68,34,29.99,29.86,11,1,17,0.00
2012-4-16,55.0,47.3,39.3,48.6,44.5,37.9,100,91,79,30.04,29.93,16,2,16,0.00
2012-4-17,70.3,51.5,43.8,56.9,47.8,40.3,100,88,61,30.06,29.89,15,2,15,0.00
2012-4-18,60.2,49.7,38.4,40.4,34.0,30.6,88,57,36,30.17,30.05,22,4,22,0.00
2012-4-19,53.9,44.2,33.5,42.8,38.0,30.9,94,80,60,30.13,30.01,18,2,18,0.00
2012-4-20,63.7,50.5,36.4,51.0,44.8,35.3,98,82,61,30.03,29.92,16,2,16,0.00
2012-4-21,52.8,48.7,43.6,51.9,46.9,40.3,98,94,84,29.92,29.76,15,2,15,0.10
2012-4-22,49.0,41.6,36.6,48.4,40.6,35.4,100,96,93,29.97,29.73,23,4,23,0.38
2012-4-23,54.1,46.6,36.0,53.7,46.1,35.1,99,98,96,29.93,29.48,30,6,30,3.18
2012-4-24,53.0,48.5,42.2,50.6,46.2,40.6,99,92,72,29.77,29.46,23,3,23,0.18
2012-4-25,58.5,47.1,33.7,46.6,39.4,32.6,99,77,46,29.81,29.72,18,2,18,0.00
2012-4-26,57.7,46.0,30.6,43.0,36.5,29.4,98,73,44,29.87,29.69,23,2,23,0.00
2012-4-27,49.8,45.1,37.3,48.9,41.2,29.0,98,87,66,29.74,29.31,31,4,31,0.80
2012-4-28,48.9,39.2,32.6,29.1,21.1,13.9,73,50,27,30.01,29.74,30,6,30,0.00
2012-4-29,52.7,40.9,28.5,26.4,18.0,9.5,86,44,21,30.09,29.86,24,4,24,0.00
2012-4-30,59.2,44.0,29.2,37.0,27.3,18.3,87,54,30,30.23,30.09,24,3,24,0.00
2012-5-1,49.1,40.0,32.6,42.1,37.4,30.9,98,91,63,30.26,30.21,13,1,14,0.32
2012-5-2,46.9,42.5,38.8,43.8,40.9,38.0,98,94,86,30.28,30.19,7,0,8,0.04
2012-5-3,60.8,49.6,38.5,47.4,43.5,37.6,99,81,59,30.22,30.06,9,1,11,0.00
2012-5-4,54.4,46.6,39.1,50.4,44.4,37.9,98,92,81,30.07,29.98,10,1,11,0.05
2012-5-5,56.8,48.7,40.6,52.3,47.2,39.5,98,95,83,30.07,29.95,8,1,11,0.07
2012-5-6,61.1,49.0,35.2,41.8,37.6,30.5,93,69,33,30.11,30.02,15,2,17,0.00
2012-5-7,66.2,47.8,31.3,42.8,36.2,27.6,95,69,24,30.12,30.05,14,2,15,0.00
2012-5-8,57.3,43.9,30.7,47.0,39.2,29.5,98,86,45,30.12,29.94,12,2,14,0.38
2012-5-9,54.0,50.2,46.3,52.5,49.3,45.2,98,97,95,29.94,29.64,14,2,20,0.38
2012-5-10,54.5,52.0,50.4,54.0,51.5,49.8,99,98,98,29.62,29.27,13,3,22,2.11
2012-5-14,61.8,54.7,49.7,53.1,50.6,48.5,96,87,71,30.17,30.12,12,1,12,0.00
2012-5-15,67.5,56.0,48.5,57.6,51.9,47.3,99,87,65,30.19,30.10,20,2,20,0.04
2012-5-16,56.9,53.8,51.9,56.5,53.1,51.3,99,98,95,30.10,29.84,18,2,18,1.59
2012-5-17,66.5,57.0,40.3,57.7,44.4,32.6,100,69,30,30.11,29.78,26,4,26,0.01
2012-5-18,69.4,53.5,33.9,46.1,38.5,32.6,98,62,31,30.22,30.10,17,1,17,0.00
2012-5-19,78.2,60.3,39.8,50.4,44.6,37.9,95,61,31,30.17,30.05,17,1,17,0.00
2012-5-20,77.8,62.7,44.9,54.6,48.6,42.9,95,64,40,30.28,30.13,13,2,13,0.00
2012-5-21,73.8,59.8,43.8,55.0,48.4,42.4,98,70,38,30.31,30.13,18,2,18,0.00
2012-5-22,71.0,59.4,51.5,65.7,57.6,50.3,99,94,77,30.13,29.83,14,1,14,0.02
2012-5-23,76.2,66.0,56.2,67.9,62.0,54.3,98,88,63,30.09,29.80,13,1,14,0.04
2012-5-24,64.5,56.1,47.6,57.7,52.6,46.7,99,89,71,30.31,30.09,12,2,14,0.00
2012-5-25,58.1,53.3,49.8,55.6,52.3,49.2,100,97,90,30.33,30.08,12,2,12,0.02
2012-5-26,83.4,67.0,55.6,67.7,56.8,45.3,99,75,29,30.09,29.94,17,2,21,0.02
2012-5-27,76.2,61.8,48.6,48.7,42.9,36.3,85,53,28,30.17,30.02,13,2,16,0.00
2012-5-28,71.8,60.2,52.4,56.0,50.3,41.9,97,72,46,30.03,29.97,9,1,10,0.18
2012-5-29,53.9,50.8,49.2,51.5,49.6,47.8,98,96,90,30.03,29.80,16,2,16,1.30
2012-5-30,68.0,55.5,49.4,62.3,53.7,48.8,99,94,79,29.81,29.67,16,1,16,0.02
2012-5-31,61.2,55.0,51.6,57.4,53.7,51.0,100,96,86,29.89,29.72,8,1,12,0.03
2012-6-1,73.5,59.9,48.0,55.7,49.0,43.8,99,71,36,30.06,29.89,14,2,18,0.00
2012-6-2,63.9,54.7,45.3,51.3,48.0,43.9,98,79,61,30.07,29.91,15,2,18,0.00
2012-6-3,55.9,53.4,50.2,53.0,49.8,46.8,96,88,80,29.91,29.68,20,3,20,0.91
2012-6-4,56.0,50.9,47.5,52.0,48.2,44.3,97,91,80,29.79,29.67,18,3,22,0.32
2012-6-5,58.0,51.3,45.8,50.7,47.0,44.1,95,86,72,29.90,29.77,22,3,22,0.05
2012-6-6,64.8,54.1,48.4,54.7,48.0,44.8,97,81,56,29.99,29.88,16,2,17,0.03
2012-6-7,65.8,55.0,47.4,52.8,48.8,45.7,97,81,55,29.98,29.88,10,1,10,0.00
2012-6-8,66.8,54.3,39.4,56.5,49.9,38.4,98,86,64,29.90,29.73,13,1,14,0.02
2012-6-9,76.2,60.9,49.5,57.1,52.1,47.1,99,77,38,29.88,29.70,22,2,25,0.04
2012-6-10,72.6,58.6,46.5,55.6,51.1,45.4,98,78,48,30.25,29.88,17,2,20,0.01
2012-6-11,70.7,58.6,43.9,57.8,51.9,42.8,98,80,56,30.31,30.20,14,1,14,0.00
2012-6-12,69.7,58.5,48.6,59.2,53.1,47.4,97,83,67,30.20,29.99,17,2,20,0.00
2012-6-13,63.0,58.0,54.6,58.7,56.0,52.0,98,93,83,30.06,29.96,7,1,13,0.27
2012-6-14,76.3,64.7,50.3,58.8,50.2,42.9,99,64,33,30.25,30.06,20,4,22,0.00
2012-6-15,77.6,61.9,48.0,56.6,50.5,44.4,94,70,39,30.32,30.23,15,2,20,0.00
2012-6-16,68.9,57.6,46.3,53.6,50.2,44.6,97,78,54,30.39,30.28,12,1,13,0.00
2012-6-17,68.2,55.7,40.2,53.2,47.2,39.1,98,76,51,30.28,30.14,13,1,14,0.00
2012-6-18,64.8,53.5,40.2,54.3,48.1,39.1,98,83,64,30.19,30.12,13,1,14,0.00
2012-6-19,68.3,56.2,40.9,59.7,52.6,39.8,100,89,73,30.15,30.00,12,1,14,0.00
2012-6-20,92.0,74.5,55.5,73.1,64.9,54.3,98,76,43,30.00,29.73,17,2,21,0.00
2012-6-21,86.2,73.9,64.8,67.3,62.3,57.0,88,69,47,29.80,29.69,12,1,13,0.00
2012-6-22,77.0,66.1,58.9,63.5,59.5,55.6,97,81,54,29.78,29.71,13,2,15,0.14
2012-6-23,62.4,59.6,56.9,61.5,58.8,56.3,100,97,96,29.85,29.75,8,1,11,0.38
2012-6-24,76.6,64.0,56.1,67.3,61.2,55.1,100,91,66,29.84,29.76,17,2,20,0.69
2012-6-25,71.7,61.2,52.5,65.1,58.8,51.8,99,92,77,29.82,29.71,13,1,14,0.28
2012-6-26,65.1,60.4,57.4,63.1,59.4,56.8,99,97,91,29.72,29.43,9,1,12,0.99
2012-6-27,64.3,59.8,56.8,62.4,58.4,55.9,98,95,85,29.56,29.43,13,1,18,0.27
2012-6-28,77.0,65.4,53.5,64.7,59.7,52.9,99,84,56,29.69,29.56,14,1,15,0.03
2012-6-29,80.3,65.6,53.1,67.0,60.9,52.3,99,86,57,29.66,29.51,15,1,19,0.09
2012-6-30,87.2,73.0,57.3,72.6,62.7,56.7,99,74,42,29.65,29.51,14,1,15,0.00
2012-7-1,86.8,72.7,59.8,68.2,63.1,58.0,96,74,44,29.75,29.63,11,1,13,0.00
2012-7-2,82.3,70.7,59.7,66.4,61.2,56.3,97,75,43,29.80,29.74,12,1,13,0.00
2012-7-3,80.5,69.2,58.0,64.7,60.7,56.2,95,76,50,29.82,29.77,11,1,11,0.00
2012-7-4,70.3,63.0,54.6,65.8,60.8,53.5,98,93,84,29.82,29.67,12,1,13,0.02
2012-7-5,81.8,69.1,60.8,69.1,64.3,60.2,99,86,64,29.81,29.64,15,2,16,0.01
2012-7-6,83.7,71.2,60.5,68.4,64.6,59.5,99,81,55,29.85,29.75,11,1,14,0.00
2012-7-7,90.7,75.1,63.1,72.7,65.6,61.1,99,76,39,29.76,29.58,18,2,19,0.14
2012-7-8,81.5,70.1,56.4,63.5,55.7,48.8,98,64,33,29.79,29.67,20,3,22,0.00
2012-7-9,79.9,66.5,52.4,55.9,51.0,47.1,92,62,33,29.91,29.78,20,2,21,0.00
2012-7-10,83.7,67.1,47.6,58.2,50.9,46.2,97,61,31,30.04,29.91,14,1,17,0.00
2012-7-11,85.6,69.7,52.8,59.4,54.5,48.8,95,63,31,30.17,30.03,13,1,14,0.00
2012-7-12,81.4,67.2,52.3,69.0,57.0,50.4,98,73,43,30.16,30.07,17,1,18,0.00
2012-7-13,90.7,72.9,51.7,70.5,60.7,50.2,97,69,35,30.12,30.05,11,1,11,0.00
2012-7-14,93.5,77.5,62.0,74.7,66.0,59.3,96,70,42,30.08,29.96,14,1,14,0.06
2012-7-15,77.5,68.1,62.2,67.6,63.9,61.0,98,87,68,30.08,29.89,14,1,14,0.00
2012-7-16,80.3,67.8,62.0,70.8,65.0,61.4,100,91,70,29.89,29.71,14,1,15,0.04
2012-7-17,68.9,65.7,62.9,67.2,64.7,62.3,99,97,93,29.76,29.56,8,1,12,0.22
2012-7-18,84.7,74.0,62.7,69.6,64.7,53.6,99,75,48,29.86,29.56,15,2,15,0.01
2012-7-19,77.3,64.8,52.1,55.2,51.4,47.4,93,65,37,29.99,29.85,19,3,23,0.00
2012-7-20,80.8,64.2,48.8,61.7,54.3,47.1,96,73,40,30.06,29.98,13,1,14,0.00
2012-7-21,78.1,64.9,50.1,61.7,55.3,48.9,98,74,44,30.08,30.02,12,1,13,0.00
2012-7-22,83.9,69.5,57.1,65.1,60.3,55.3,97,75,47,30.07,30.02,16,1,18,0.00
2012-7-23,81.3,68.3,57.3,68.5,63.0,55.9,97,84,63,30.05,29.77,14,1,16,0.00
2012-7-24,81.8,70.0,64.2,73.6,67.6,62.6,99,92,74,29.77,29.46,15,1,15,0.34
2012-7-25,80.7,68.1,57.8,62.6,56.1,53.8,92,69,42,29.72,29.57,22,4,23,0.00
2012-7-26,77.0,64.9,54.4,63.6,58.8,52.8,97,82,52,29.72,29.63,8,0,11,0.00
2012-7-27,76.5,67.8,60.1,68.8,64.8,58.9,98,90,70,29.89,29.61,8,0,9,0.05
2012-7-28,80.8,69.4,57.7,68.9,63.6,57.0,99,83,62,30.00,29.88,8,0,9,0.00
2012-7-29,69.3,65.3,59.6,67.9,64.1,58.7,99,96,93,30.04,29.95,6,0,7,0.52
2012-7-30,83.7,69.1,57.4,69.1,62.9,56.8,100,82,58,30.07,30.01,10,1,13,0.00
2012-7-31,72.3,61.2,58.6,66.8,59.7,57.4,99,95,83,30.08,30.06,6,0,7,0.00
2012-8-1,79.1,69.1,62.7,69.1,65.4,62.1,98,89,67,29.88,29.79,14,2,19,0.74
2012-8-2,77.2,67.5,62.3,70.3,65.3,61.7,99,93,77,29.90,29.82,9,1,12,0.00
2012-8-3,87.7,72.5,61.9,74.6,67.3,61.4,99,86,56,30.02,29.87,8,0,11,0.01
2012-8-4,90.0,74.8,62.5,70.2,65.9,60.8,98,77,43,30.23,30.02,12,1,13,0.00
2012-8-5,77.1,67.7,60.2,72.8,66.1,59.3,100,95,85,30.23,29.90,13,1,13,0.01
2012-8-6,85.1,74.7,62.3,71.8,64.1,56.6,99,73,43,29.93,29.82,14,2,15,0.00
2012-8-7,81.4,68.9,56.2,62.9,58.2,54.0,93,71,46,29.96,29.90,15,1,15,0.00
2012-8-8,85.6,70.1,55.0,70.5,62.5,53.8,98,79,52,29.95,29.91,11,1,12,0.00
2012-8-9,78.5,65.4,59.5,71.3,63.1,58.8,99,93,74,29.97,29.94,11,0,14,0.00
2012-9-12,75.2,64.8,49.1,57.9,53.2,47.6,96,69,46,30.32,30.28,10,1,13,0.00
2012-9-13,49.0,46.3,45.0,47.7,45.4,44.1,99,97,95,30.32,30.29,0,0,0,0.00
2012-9-14,74.8,63.7,53.3,66.9,61.2,52.3,99,92,74,30.24,30.08,11,1,13,0.01
2012-9-15,70.0,62.7,46.0,64.9,58.6,43.8,96,87,64,30.08,29.84,18,1,21,0.00
2012-9-16,65.8,53.2,40.5,45.9,42.7,38.9,95,70,41,29.98,29.88,18,2,19,0.00
2012-9-17,69.8,51.5,34.6,50.5,43.4,33.8,99,78,44,30.08,29.97,11,0,11,0.00
2012-9-18,70.5,57.5,42.1,62.6,53.6,41.1,99,88,65,30.08,29.86,20,3,24,0.01
2012-9-19,67.3,61.1,44.2,66.0,56.5,42.2,98,86,56,30.20,29.76,22,4,30,0.71
2012-9-20,65.7,50.9,39.9,52.4,44.1,38.3,97,80,48,30.27,30.16,11,1,12,0.01
2012-9-21,59.1,54.1,46.7,54.7,51.7,45.8,98,92,80,30.18,30.08,5,0,6,0.04
2012-9-22,72.6,61.8,55.6,67.4,60.9,54.7,99,97,80,30.08,29.84,11,1,11,0.14
2012-9-23,73.2,60.2,45.2,65.0,55.4,44.1,100,86,55,30.02,29.80,13,1,16,0.01
2012-9-24,65.8,50.3,39.0,50.2,43.6,37.9,99,81,44,30.10,30.00,7,0,9,0.01
2012-9-25,67.2,51.5,35.4,52.9,44.8,34.6,99,81,47,30.12,30.04,16,1,20,0.00
2012-9-26,63.0,57.4,45.6,61.1,56.0,44.7,99,95,89,30.12,29.94,15,1,15,0.04
2012-9-27,64.3,55.9,38.8,61.2,47.5,37.7,97,76,44,30.23,29.92,18,3,19,0.00
2012-9-28,60.9,48.3,34.2,50.8,43.5,33.1,99,85,54,30.27,30.13,11,1,11,0.15
2012-9-29,58.2,53.5,47.9,57.6,52.8,47.0,98,98,96,30.14,29.84,11,1,14,1.12
2012-9-30,64.3,58.9,54.5,63.9,58.4,53.9,99,99,97,29.92,29.56,14,0,15,2.03
2012-10-1,61.9,55.9,49.8,56.2,54.0,48.8,99,94,79,29.82,29.60,13,1,17,0.04
2012-10-2,74.8,61.6,52.8,60.0,55.6,51.3,97,82,56,30.02,29.82,14,1,14,0.00
2012-10-3,73.0,62.7,54.6,60.6,56.5,53.7,99,82,55,30.16,30.01,6,0,7,0.00
2012-10-4,62.1,58.0,51.7,58.4,52.7,49.5,97,83,65,30.20,30.02,6,0,8,0.26
2012-10-5,62.0,56.0,51.6,59.0,54.8,50.7,99,96,89,30.02,29.89,8,0,9,0.07
2012-10-6,64.9,58.9,52.6,61.8,57.9,51.1,99,97,88,29.91,29.68,18,2,21,0.23
2012-10-7,58.7,50.1,39.5,51.0,45.5,38.7,99,86,59,30.03,29.81,11,0,13,0.01
2012-10-8,55.7,46.5,37.1,46.8,41.0,35.7,98,83,54,30.37,29.97,15,2,20,0.40
2012-10-9,56.4,45.4,36.3,42.5,38.9,35.2,97,80,50,30.38,30.16,11,1,12,0.00
2012-10-10,60.0,51.2,44.9,59.6,49.9,41.2,99,96,87,30.16,29.55,18,1,23,0.31
2012-10-11,60.0,47.7,32.1,59.6,39.2,28.5,99,75,39,30.05,29.54,27,3,27,0.02
2012-10-12,52.1,42.6,32.2,46.9,36.5,26.4,98,81,52,30.20,29.88,22,2,27,0.09
2012-10-13,47.8,37.5,28.8,30.4,27.4,24.5,94,69,43,30.35,30.20,22,2,22,0.00
2012-10-14,51.6,43.3,29.8,51.2,42.3,28.3,99,96,92,30.30,29.95,5,0,6,0.24
2012-10-15,66.0,58.8,47.2,61.9,56.9,46.6,99,94,85,29.95,29.61,18,2,20,0.00
2012-10-16,61.7,52.2,42.4,60.5,50.1,36.7,99,93,79,29.76,29.41,20,2,26,0.43
2012-10-17,58.7,43.5,31.7,39.1,34.8,30.4,98,75,38,30.00,29.76,14,1,17,0.00
2012-10-18,62.0,44.0,31.2,48.2,39.1,30.2,99,85,48,30.19,30.00,8,0,9,0.01
2012-10-19,59.0,50.3,35.7,57.2,48.5,34.9,99,94,83,30.19,29.87,21,2,22,0.20
2012-10-20,63.9,60.8,57.3,63.5,60.3,57.0,99,98,97,29.89,29.63,26,3,26,1.69
2012-10-21,63.1,55.2,48.2,57.0,48.6,43.0,99,80,53,29.73,29.63,13,1,13,0.00
2012-10-22,59.3,51.9,46.9,44.5,42.0,38.3,87,70,53,29.86,29.70,24,4,28,0.00
2012-10-23,56.7,46.4,38.6,38.5,35.7,33.3,87,67,46,30.09,29.86,24,3,25,0.00
2012-10-24,56.4,40.4,29.0,35.7,30.6,25.8,96,73,32,30.23,30.08,12,1,16,0.00
2012-10-25,56.1,38.0,26.7,35.0,28.6,24.9,95,74,32,30.34,30.23,8,0,11,0.00
2012-10-26,62.3,43.5,28.8,49.9,38.9,27.5,98,85,59,30.26,30.12,8,0,11,0.00
2012-10-27,67.2,48.6,38.2,52.6,41.9,37.4,99,81,41,30.12,30.02,8,0,11,0.00
2012-10-28,59.4,49.4,39.2,50.1,46.2,37.6,98,89,71,30.09,29.93,16,2,16,0.00
2012-10-29,62.0,56.2,50.5,56.1,53.8,49.1,97,92,79,29.93,29.72,26,5,26,0.02
2012-10-30,62.8,60.7,58.1,62.2,59.9,55.7,99,97,91,29.81,29.66,26,6,28,1.20
2012-10-31,60.9,57.9,51.7,60.5,57.4,51.1,99,98,97,29.70,29.51,18,2,23,0.20
2012-11-1,51.9,47.1,36.2,51.2,46.5,35.6,100,98,96,29.56,29.48,0,0,0,0.06
2012-11-2,51.6,43.1,33.6,49.7,42.4,33.1,100,97,88,29.51,29.47,0,0,0,0.01
2012-11-3,53.1,46.3,41.9,45.5,41.6,38.4,98,84,66,29.64,29.50,17,3,17,0.01
2012-11-4,47.6,43.7,38.6,40.4,37.4,32.2,88,79,70,29.87,29.64,19,4,20,0.00
2012-11-5,39.4,35.8,28.5,32.8,29.1,22.4,88,77,61,30.03,29.86,14,2,14,0.00
2012-11-6,39.4,29.1,21.1,25.4,20.4,18.4,91,72,46,30.26,30.03,17,1,19,0.00
2012-11-7,37.6,29.8,19.2,31.8,21.4,15.3,100,73,41,30.28,29.90,19,3,21,0.00
2012-11-8,40.5,36.8,32.8,39.7,35.8,31.8,100,96,95,29.91,29.64,20,6,23,1.90
2012-11-9,44.0,38.6,32.1,37.9,34.7,30.1,96,86,73,29.97,29.64,28,6,32,0.00
2012-11-10,46.9,36.8,24.0,32.4,26.2,18.6,89,68,40,30.47,29.94,21,3,25,0.00
2012-11-11,50.9,35.9,21.1,49.5,32.8,19.7,97,89,77,30.55,30.41,9,0,11,0.00
2012-11-12,64.9,51.2,38.9,55.0,47.7,38.2,99,89,56,30.44,30.28,19,1,19,0.00
2012-11-13,59.5,51.4,38.7,57.8,49.4,33.0,97,93,80,30.38,30.10,20,4,21,0.38
2012-11-14,44.9,36.8,29.4,33.1,30.1,26.7,91,77,56,30.51,30.37,17,4,19,0.00
2012-11-15,41.2,35.0,28.7,33.1,30.1,26.8,93,83,70,30.47,30.28,17,3,17,0.00
2012-11-16,42.4,35.5,29.8,31.7,29.7,26.7,92,80,63,30.37,30.24,12,2,14,0.00
2012-11-17,40.4,30.8,21.4,29.4,23.8,18.9,100,77,45,30.66,30.37,15,2,16,0.00
2012-11-18,46.4,28.6,18.6,25.9,20.1,16.6,93,74,35,30.73,30.65,8,0,9,0.00
2012-11-19,48.1,30.6,20.2,35.6,26.0,18.3,95,84,59,30.65,30.26,7,0,8,0.00
2012-11-20,50.2,32.4,21.1,33.7,25.5,19.7,97,79,34,30.26,30.11,10,1,12,0.01
2012-11-21,50.4,36.6,27.2,39.4,32.4,25.9,97,86,62,30.27,30.18,9,1,10,0.00
2012-11-22,53.7,34.8,24.9,40.8,31.1,23.7,98,88,54,30.26,30.10,8,0,9,0.01
2012-11-23,53.2,38.1,25.9,48.0,35.9,24.9,99,92,75,30.10,29.65,13,1,14,0.00
2012-11-24,51.0,42.0,33.1,48.9,39.1,22.5,99,90,64,29.65,29.32,17,2,22,0.02
2012-11-25,35.7,30.9,26.7,22.8,17.2,12.8,74,57,46,29.69,29.38,23,6,28,0.00
2012-11-26,39.5,30.1,23.4,21.7,16.5,10.9,69,57,42,30.20,29.68,16,3,19,0.00
2012-11-27,32.4,23.6,13.5,20.9,16.5,11.4,93,75,51,30.33,30.20,6,0,7,0.00
2012-11-28,33.4,29.1,22.9,21.1,19.0,16.9,81,66,56,30.27,30.06,12,2,15,0.00
2012-11-29,35.6,28.1,17.8,28.5,18.2,10.4,100,68,37,30.12,30.00,20,3,22,0.00
2012-11-30,27.6,19.0,11.7,15.9,6.8,2.8,76,60,37,30.58,30.12,21,3,23,0.00
2012-12-1,27.6,18.4,4.9,25.6,9.9,2.0,93,71,48,30.71,30.55,11,0,11,0.00
2012-12-2,52.2,45.7,27.6,51.3,43.8,26.1,100,93,83,30.55,29.93,19,4,21,0.36
2012-12-3,51.4,42.7,27.1,49.1,39.9,26.0,97,90,75,30.29,29.91,19,2,21,0.07
2012-12-4,49.2,35.7,22.8,48.1,34.5,21.6,98,95,91,30.33,29.99,14,1,18,0.00
2012-12-5,53.7,46.2,31.6,52.4,40.7,20.5,98,82,62,29.99,29.73,29,5,29,0.21
2012-12-6,34.2,28.3,18.7,22.2,18.1,15.4,91,66,49,30.28,29.95,22,4,25,0.00
2012-12-7,43.8,31.7,15.6,40.5,27.8,13.7,97,86,71,30.28,30.03,9,0,11,0.14
2012-12-8,42.2,39.4,37.0,41.6,38.8,36.2,99,98,96,30.03,29.81,6,0,6,0.26
2012-12-9,43.7,36.2,26.3,42.2,32.3,24.8,99,87,62,30.33,29.82,17,2,22,0.00
2012-12-10,41.8,35.3,27.0,41.5,33.8,25.2,99,95,81,30.26,29.43,10,1,12,0.52
2012-12-11,42.2,34.8,22.8,41.8,31.6,19.1,99,88,73,30.09,29.46,16,2,18,0.01
2012-12-12,35.3,23.4,16.4,21.7,18.2,14.6,94,81,53,30.37,30.09,8,1,10,0.00
2012-12-13,41.3,25.0,14.5,29.3,20.8,12.6,97,85,54,30.43,30.24,10,0,10,0.01
2012-12-14,45.0,31.8,20.1,34.2,26.4,18.7,97,81,60,30.24,29.94,11,1,12,0.00
2012-12-15,34.3,21.5,12.0,27.8,10.4,3.3,78,62,42,30.38,30.04,21,6,22,0.00
2012-12-16,25.0,16.2,6.3,10.2,5.3,2.1,92,63,39,30.38,30.23,10,2,11,0.00
2012-12-17,38.1,30.5,20.5,34.7,24.0,9.7,89,77,63,30.25,29.99,12,2,13,0.00
2012-12-18,42.0,40.5,37.8,39.9,38.7,34.7,97,93,85,30.00,29.46,23,4,25,0.69
2012-12-19,40.5,35.9,32.5,39.7,34.8,30.7,97,96,93,29.96,29.43,20,4,23,0.55
2012-12-20,36.6,31.2,26.6,30.9,28.5,25.3,97,90,79,30.17,29.96,15,2,17,0.01
2012-12-21,51.4,39.3,28.7,50.7,38.2,27.4,98,96,92,30.09,29.14,31,3,38,1.17
2012-12-22,45.9,37.4,26.9,45.3,35.8,23.0,99,94,85,29.41,29.16,20,2,22,0.25
2012-12-23,29.5,25.0,21.4,23.3,16.4,12.8,86,70,54,29.75,29.41,21,4,26,0.00
2012-12-24,30.6,24.1,15.7,22.1,15.9,12.9,91,71,51,30.05,29.73,18,2,21,0.00
2012-12-25,32.0,22.7,13.5,18.7,14.7,10.9,92,72,51,30.15,29.99,14,2,15,0.00
2012-12-26,30.6,20.6,14.0,17.6,14.3,10.4,86,77,58,30.33,30.15,17,2,17,0.00
2012-12-27,32.9,29.2,21.5,32.1,27.5,15.7,97,94,78,30.19,29.38,18,2,21,0.00
2012-12-28,31.0,26.1,19.1,27.9,23.9,16.8,96,91,85,29.90,29.38,0,0,0,0.08
2012-12-29,25.3,19.0,6.2,22.8,16.8,3.8,95,91,85,29.98,29.40,0,0,0,0.00
2012-12-30,25.3,21.1,12.4,24.1,19.4,8.9,95,93,85,29.60,29.23,30,5,30,0.00
2012-12-31,28.5,18.7,11.7,22.2,13.8,8.0,95,81,65,29.77,29.59,21,4,26,0.00
2013-1-1,33.1,22.7,9.0,26.2,14.6,0.7,93,72,52,29.75,29.52,25,4,25,0.01